sensor_id;sensor_type;location;lat;lon;timestamp;temperature;humidity
18392;DHT22;9322;50.932;5.318;2023-06-14T00:00:19;20.40;1.40
18392;DHT22;9322;50.932;5.318;2023-06-14T00:02:45;20.30;1.40
18392;DHT22;9322;50.932;5.318;2023-06-14T00:05:12;20.40;1.40
18392;DHT22;9322;50.932;5.318;2023-06-14T00:07:40;20.30;1.40
18392;DHT22;9322;50.932;5.318;2023-06-14T00:10:08;20.10;1.40
18392;DHT22;9322;50.932;5.318;2023-06-14T00:12:34;20.10;1.40
18392;DHT22;9322;50.932;5.318;2023-06-14T00:15:00;20.10;1.40
18392;DHT22;9322;50.932;5.318;2023-06-14T00:17:29;20.10;1.40
18392;DHT22;9322;50.932;5.318;2023-06-14T00:19:58;20.10;1.40
18392;DHT22;9322;50.932;5.318;2023-06-14T00:22:24;20.10;1.40
18392;DHT22;9322;50.932;5.318;2023-06-14T00:24:52;20.00;1.40
18392;DHT22;9322;50.932;5.318;2023-06-14T00:27:18;20.00;1.40
18392;DHT22;9322;50.932;5.318;2023-06-14T00:29:44;20.00;1.40
18392;DHT22;9322;50.932;5.318;2023-06-14T00:32:09;19.90;1.40
18392;DHT22;9322;50.932;5.318;2023-06-14T00:34:35;19.90;1.40
18392;DHT22;9322;50.932;5.318;2023-06-14T00:37:01;19.90;1.40
18392;DHT22;9322;50.932;5.318;2023-06-14T00:39:27;19.70;1.40
18392;DHT22;9322;50.932;5.318;2023-06-14T00:41:52;19.70;1.40
18392;DHT22;9322;50.932;5.318;2023-06-14T00:44:18;19.80;1.40
18392;DHT22;9322;50.932;5.318;2023-06-14T00:46:47;19.70;1.40
18392;DHT22;9322;50.932;5.318;2023-06-14T00:49:14;19.70;1.40
18392;DHT22;9322;50.932;5.318;2023-06-14T00:51:41;19.70;1.40
18392;DHT22;9322;50.932;5.318;2023-06-14T00:54:07;19.60;1.40
18392;DHT22;9322;50.932;5.318;2023-06-14T00:56:33;19.50;1.40
18392;DHT22;9322;50.932;5.318;2023-06-14T00:58:58;19.50;1.40
18392;DHT22;9322;50.932;5.318;2023-06-14T01:01:25;19.50;1.40
18392;DHT22;9322;50.932;5.318;2023-06-14T01:03:50;19.50;1.40
18392;DHT22;9322;50.932;5.318;2023-06-14T01:09:16;19.50;1.40
18392;DHT22;9322;50.932;5.318;2023-06-14T01:11:49;19.40;1.40
18392;DHT22;9322;50.932;5.318;2023-06-14T01:14:16;19.40;1.40
18392;DHT22;9322;50.932;5.318;2023-06-14T01:16:43;19.30;1.40
18392;DHT22;9322;50.932;5.318;2023-06-14T01:19:12;19.20;1.40
18392;DHT22;9322;50.932;5.318;2023-06-14T01:21:39;19.10;1.40
18392;DHT22;9322;50.932;5.318;2023-06-14T01:24:10;19.10;1.40
18392;DHT22;9322;50.932;5.318;2023-06-14T01:26:38;19.10;1.40
18392;DHT22;9322;50.932;5.318;2023-06-14T01:29:04;19.00;1.40
18392;DHT22;9322;50.932;5.318;2023-06-14T01:31:31;19.00;1.40
18392;DHT22;9322;50.932;5.318;2023-06-14T01:34:07;19.00;1.40
18392;DHT22;9322;50.932;5.318;2023-06-14T01:36:33;19.00;1.40
18392;DHT22;9322;50.932;5.318;2023-06-14T01:38:59;18.90;1.40
18392;DHT22;9322;50.932;5.318;2023-06-14T01:41:26;18.90;1.40
18392;DHT22;9322;50.932;5.318;2023-06-14T01:43:52;18.90;1.40
18392;DHT22;9322;50.932;5.318;2023-06-14T01:46:19;18.80;1.40
18392;DHT22;9322;50.932;5.318;2023-06-14T01:48:45;18.80;1.40
18392;DHT22;9322;50.932;5.318;2023-06-14T01:51:11;18.80;1.40
18392;DHT22;9322;50.932;5.318;2023-06-14T01:53:36;18.80;1.40
18392;DHT22;9322;50.932;5.318;2023-06-14T01:56:02;18.70;1.40
18392;DHT22;9322;50.932;5.318;2023-06-14T01:58:29;18.80;1.40
18392;DHT22;9322;50.932;5.318;2023-06-14T02:00:54;18.80;1.40
18392;DHT22;9322;50.932;5.318;2023-06-14T02:03:23;18.70;1.40
18392;DHT22;9322;50.932;5.318;2023-06-14T02:05:49;18.70;1.40
18392;DHT22;9322;50.932;5.318;2023-06-14T02:08:15;18.60;1.40
18392;DHT22;9322;50.932;5.318;2023-06-14T02:10:41;18.60;1.40
18392;DHT22;9322;50.932;5.318;2023-06-14T02:13:06;18.60;1.40
18392;DHT22;9322;50.932;5.318;2023-06-14T02:15:32;18.60;1.40
18392;DHT22;9322;50.932;5.318;2023-06-14T02:18:04;18.60;1.40
18392;DHT22;9322;50.932;5.318;2023-06-14T02:20:29;18.60;1.40
18392;DHT22;9322;50.932;5.318;2023-06-14T02:22:55;18.50;1.40
18392;DHT22;9322;50.932;5.318;2023-06-14T02:25:21;18.40;1.40
18392;DHT22;9322;50.932;5.318;2023-06-14T02:27:46;18.40;1.40
18392;DHT22;9322;50.932;5.318;2023-06-14T02:30:12;18.40;1.40
18392;DHT22;9322;50.932;5.318;2023-06-14T02:32:38;18.30;1.40
18392;DHT22;9322;50.932;5.318;2023-06-14T02:35:06;18.30;1.40
18392;DHT22;9322;50.932;5.318;2023-06-14T02:37:32;18.30;1.40
18392;DHT22;9322;50.932;5.318;2023-06-14T02:39:58;18.30;1.40
18392;DHT22;9322;50.932;5.318;2023-06-14T02:42:24;18.30;1.40
18392;DHT22;9322;50.932;5.318;2023-06-14T02:44:50;18.30;1.40
18392;DHT22;9322;50.932;5.318;2023-06-14T02:47:17;18.30;1.40
18392;DHT22;9322;50.932;5.318;2023-06-14T02:49:44;18.30;1.40
18392;DHT22;9322;50.932;5.318;2023-06-14T02:52:12;18.30;1.40
18392;DHT22;9322;50.932;5.318;2023-06-14T02:54:37;18.20;1.40
18392;DHT22;9322;50.932;5.318;2023-06-14T02:57:03;18.20;1.40
18392;DHT22;9322;50.932;5.318;2023-06-14T02:59:29;18.20;1.40
18392;DHT22;9322;50.932;5.318;2023-06-14T03:01:55;18.10;1.40
18392;DHT22;9322;50.932;5.318;2023-06-14T03:04:20;18.10;1.40
18392;DHT22;9322;50.932;5.318;2023-06-14T03:06:46;18.10;1.40
18392;DHT22;9322;50.932;5.318;2023-06-14T03:09:15;18.00;1.40
18392;DHT22;9322;50.932;5.318;2023-06-14T03:11:41;18.00;1.40
18392;DHT22;9322;50.932;5.318;2023-06-14T03:14:07;18.00;1.40
18392;DHT22;9322;50.932;5.318;2023-06-14T03:16:33;18.00;1.40
18392;DHT22;9322;50.932;5.318;2023-06-14T03:18:59;18.00;1.40
18392;DHT22;9322;50.932;5.318;2023-06-14T03:21:25;17.90;1.40
18392;DHT22;9322;50.932;5.318;2023-06-14T03:23:51;17.90;1.40
18392;DHT22;9322;50.932;5.318;2023-06-14T03:26:18;17.90;1.40
18392;DHT22;9322;50.932;5.318;2023-06-14T03:28:47;17.90;1.40
18392;DHT22;9322;50.932;5.318;2023-06-14T03:31:15;17.90;1.40
18392;DHT22;9322;50.932;5.318;2023-06-14T03:33:41;17.90;1.40
18392;DHT22;9322;50.932;5.318;2023-06-14T03:36:07;17.80;1.40
18392;DHT22;9322;50.932;5.318;2023-06-14T03:38:33;17.70;1.40
18392;DHT22;9322;50.932;5.318;2023-06-14T03:40:59;17.80;1.40
18392;DHT22;9322;50.932;5.318;2023-06-14T03:43:25;17.80;1.40
18392;DHT22;9322;50.932;5.318;2023-06-14T03:45:51;17.70;1.40
18392;DHT22;9322;50.932;5.318;2023-06-14T03:48:16;17.70;1.40
18392;DHT22;9322;50.932;5.318;2023-06-14T03:50:42;17.70;1.40
18392;DHT22;9322;50.932;5.318;2023-06-14T03:53:08;17.70;1.40
18392;DHT22;9322;50.932;5.318;2023-06-14T03:55:34;17.70;1.40
18392;DHT22;9322;50.932;5.318;2023-06-14T03:58:00;17.80;1.40
18392;DHT22;9322;50.932;5.318;2023-06-14T04:00:26;17.80;1.40
18392;DHT22;9322;50.932;5.318;2023-06-14T04:02:52;17.70;1.40
18392;DHT22;9322;50.932;5.318;2023-06-14T04:05:19;17.70;1.40
18392;DHT22;9322;50.932;5.318;2023-06-14T04:07:45;17.80;1.40
18392;DHT22;9322;50.932;5.318;2023-06-14T04:10:12;17.80;1.40
18392;DHT22;9322;50.932;5.318;2023-06-14T04:12:38;17.70;1.40
18392;DHT22;9322;50.932;5.318;2023-06-14T04:15:05;17.80;1.40
18392;DHT22;9322;50.932;5.318;2023-06-14T04:17:34;17.80;1.40
18392;DHT22;9322;50.932;5.318;2023-06-14T04:20:00;17.90;1.40
18392;DHT22;9322;50.932;5.318;2023-06-14T04:22:26;17.90;1.40
18392;DHT22;9322;50.932;5.318;2023-06-14T04:24:55;17.90;1.40
18392;DHT22;9322;50.932;5.318;2023-06-14T04:27:26;17.90;1.40
18392;DHT22;9322;50.932;5.318;2023-06-14T04:29:52;18.00;1.40
18392;DHT22;9322;50.932;5.318;2023-06-14T04:32:26;18.10;1.40
18392;DHT22;9322;50.932;5.318;2023-06-14T04:34:58;18.30;1.40
18392;DHT22;9322;50.932;5.318;2023-06-14T04:37:25;18.80;1.40
18392;DHT22;9322;50.932;5.318;2023-06-14T04:39:54;19.40;1.40
18392;DHT22;9322;50.932;5.318;2023-06-14T04:42:21;19.90;1.40
18392;DHT22;9322;50.932;5.318;2023-06-14T04:44:51;20.30;1.40
18392;DHT22;9322;50.932;5.318;2023-06-14T04:47:16;20.80;1.40
18392;DHT22;9322;50.932;5.318;2023-06-14T04:49:42;21.00;1.40
18392;DHT22;9322;50.932;5.318;2023-06-14T04:52:08;21.40;1.40
18392;DHT22;9322;50.932;5.318;2023-06-14T04:54:36;21.80;1.40
18392;DHT22;9322;50.932;5.318;2023-06-14T04:57:07;22.10;1.40
18392;DHT22;9322;50.932;5.318;2023-06-14T04:59:34;22.40;1.40
18392;DHT22;9322;50.932;5.318;2023-06-14T05:02:01;22.50;1.40
18392;DHT22;9322;50.932;5.318;2023-06-14T05:04:27;22.40;1.40
18392;DHT22;9322;50.932;5.318;2023-06-14T05:06:53;22.70;1.40
18392;DHT22;9322;50.932;5.318;2023-06-14T05:09:22;23.00;1.40
18392;DHT22;9322;50.932;5.318;2023-06-14T05:11:48;23.20;1.40
18392;DHT22;9322;50.932;5.318;2023-06-14T05:14:15;23.40;1.40
18392;DHT22;9322;50.932;5.318;2023-06-14T05:16:41;24.20;1.40
18392;DHT22;9322;50.932;5.318;2023-06-14T05:19:08;24.30;1.40
18392;DHT22;9322;50.932;5.318;2023-06-14T05:21:36;24.90;1.40
18392;DHT22;9322;50.932;5.318;2023-06-14T05:24:02;24.90;1.40
18392;DHT22;9322;50.932;5.318;2023-06-14T05:26:28;25.50;1.40
18392;DHT22;9322;50.932;5.318;2023-06-14T05:28:57;25.50;1.40
18392;DHT22;9322;50.932;5.318;2023-06-14T05:31:26;25.20;1.40
18392;DHT22;9322;50.932;5.318;2023-06-14T05:33:53;25.70;1.40
18392;DHT22;9322;50.932;5.318;2023-06-14T05:36:19;26.10;1.40
18392;DHT22;9322;50.932;5.318;2023-06-14T05:38:46;26.20;1.40
18392;DHT22;9322;50.932;5.318;2023-06-14T05:41:12;26.60;1.40
18392;DHT22;9322;50.932;5.318;2023-06-14T05:43:38;26.60;1.40
18392;DHT22;9322;50.932;5.318;2023-06-14T05:46:04;26.50;1.40
18392;DHT22;9322;50.932;5.318;2023-06-14T05:48:30;27.10;1.40
18392;DHT22;9322;50.932;5.318;2023-06-14T05:50:56;27.10;1.40
18392;DHT22;9322;50.932;5.318;2023-06-14T05:53:22;27.40;1.40
18392;DHT22;9322;50.932;5.318;2023-06-14T05:55:48;27.40;1.40
18392;DHT22;9322;50.932;5.318;2023-06-14T05:58:14;27.40;1.40
18392;DHT22;9322;50.932;5.318;2023-06-14T06:00:40;28.10;1.40
18392;DHT22;9322;50.932;5.318;2023-06-14T06:03:05;28.80;1.40
18392;DHT22;9322;50.932;5.318;2023-06-14T06:05:33;28.70;1.40
18392;DHT22;9322;50.932;5.318;2023-06-14T06:07:59;28.20;1.40
18392;DHT22;9322;50.932;5.318;2023-06-14T06:10:25;29.40;1.40
18392;DHT22;9322;50.932;5.318;2023-06-14T06:12:51;29.50;1.40
18392;DHT22;9322;50.932;5.318;2023-06-14T06:15:17;29.30;1.40
18392;DHT22;9322;50.932;5.318;2023-06-14T06:17:44;30.30;1.40
18392;DHT22;9322;50.932;5.318;2023-06-14T06:20:16;30.20;1.40
18392;DHT22;9322;50.932;5.318;2023-06-14T06:22:42;29.50;1.40
18392;DHT22;9322;50.932;5.318;2023-06-14T06:25:08;29.60;1.40
18392;DHT22;9322;50.932;5.318;2023-06-14T06:27:34;29.60;1.40
18392;DHT22;9322;50.932;5.318;2023-06-14T06:30:03;29.50;1.40
18392;DHT22;9322;50.932;5.318;2023-06-14T06:32:28;29.10;1.40
18392;DHT22;9322;50.932;5.318;2023-06-14T06:34:54;28.70;1.40
18392;DHT22;9322;50.932;5.318;2023-06-14T06:37:20;28.70;1.40
18392;DHT22;9322;50.932;5.318;2023-06-14T06:39:45;29.10;1.40
18392;DHT22;9322;50.932;5.318;2023-06-14T06:42:12;29.10;1.40
18392;DHT22;9322;50.932;5.318;2023-06-14T06:44:37;29.20;1.40
18392;DHT22;9322;50.932;5.318;2023-06-14T06:47:03;29.60;1.40
18392;DHT22;9322;50.932;5.318;2023-06-14T06:49:29;29.80;1.40
18392;DHT22;9322;50.932;5.318;2023-06-14T06:52:05;29.90;1.40
18392;DHT22;9322;50.932;5.318;2023-06-14T06:54:32;30.00;1.40
18392;DHT22;9322;50.932;5.318;2023-06-14T06:56:58;29.40;1.40
18392;DHT22;9322;50.932;5.318;2023-06-14T06:59:24;29.40;1.40
18392;DHT22;9322;50.932;5.318;2023-06-14T07:01:50;29.30;1.40
18392;DHT22;9322;50.932;5.318;2023-06-14T07:04:15;28.80;1.40
18392;DHT22;9322;50.932;5.318;2023-06-14T07:06:43;29.10;1.40
18392;DHT22;9322;50.932;5.318;2023-06-14T07:09:09;29.80;1.40
18392;DHT22;9322;50.932;5.318;2023-06-14T07:11:42;29.50;1.40
18392;DHT22;9322;50.932;5.318;2023-06-14T07:14:07;29.20;1.40
18392;DHT22;9322;50.932;5.318;2023-06-14T07:16:33;29.30;1.40
18392;DHT22;9322;50.932;5.318;2023-06-14T07:18:59;29.40;1.40
18392;DHT22;9322;50.932;5.318;2023-06-14T07:21:26;29.30;1.40
18392;DHT22;9322;50.932;5.318;2023-06-14T07:23:54;29.20;1.40
18392;DHT22;9322;50.932;5.318;2023-06-14T07:26:21;29.30;1.40
18392;DHT22;9322;50.932;5.318;2023-06-14T07:28:47;29.70;1.40
18392;DHT22;9322;50.932;5.318;2023-06-14T07:31:17;30.00;1.40
18392;DHT22;9322;50.932;5.318;2023-06-14T07:33:45;29.90;1.40
18392;DHT22;9322;50.932;5.318;2023-06-14T07:36:10;30.40;1.40
18392;DHT22;9322;50.932;5.318;2023-06-14T07:38:36;31.10;1.40
18392;DHT22;9322;50.932;5.318;2023-06-14T07:41:02;31.10;1.40
18392;DHT22;9322;50.932;5.318;2023-06-14T07:43:28;31.40;1.40
18392;DHT22;9322;50.932;5.318;2023-06-14T07:45:54;31.60;1.40
18392;DHT22;9322;50.932;5.318;2023-06-14T07:48:20;30.90;1.40
18392;DHT22;9322;50.932;5.318;2023-06-14T07:50:46;30.70;1.40
18392;DHT22;9322;50.932;5.318;2023-06-14T07:53:11;30.80;1.40
18392;DHT22;9322;50.932;5.318;2023-06-14T07:55:37;31.70;1.40
18392;DHT22;9322;50.932;5.318;2023-06-14T07:58:04;31.90;1.40
18392;DHT22;9322;50.932;5.318;2023-06-14T08:00:30;30.90;1.40
18392;DHT22;9322;50.932;5.318;2023-06-14T08:02:56;30.80;1.40
18392;DHT22;9322;50.932;5.318;2023-06-14T08:05:28;31.30;1.40
18392;DHT22;9322;50.932;5.318;2023-06-14T08:07:54;31.80;1.40
18392;DHT22;9322;50.932;5.318;2023-06-14T08:10:20;31.50;1.40
18392;DHT22;9322;50.932;5.318;2023-06-14T08:12:46;32.20;1.40
18392;DHT22;9322;50.932;5.318;2023-06-14T08:15:13;33.00;1.40
18392;DHT22;9322;50.932;5.318;2023-06-14T08:17:39;32.80;1.40
18392;DHT22;9322;50.932;5.318;2023-06-14T08:20:05;32.60;1.40
18392;DHT22;9322;50.932;5.318;2023-06-14T08:22:31;31.90;1.40
18392;DHT22;9322;50.932;5.318;2023-06-14T08:25:00;32.10;1.40
18392;DHT22;9322;50.932;5.318;2023-06-14T08:27:26;32.60;1.40
18392;DHT22;9322;50.932;5.318;2023-06-14T08:29:52;33.10;1.40
18392;DHT22;9322;50.932;5.318;2023-06-14T08:32:17;33.10;1.40
18392;DHT22;9322;50.932;5.318;2023-06-14T08:34:43;32.90;1.40
18392;DHT22;9322;50.932;5.318;2023-06-14T08:37:08;32.80;1.40
18392;DHT22;9322;50.932;5.318;2023-06-14T08:39:34;32.20;1.40
18392;DHT22;9322;50.932;5.318;2023-06-14T08:42:01;32.90;1.40
18392;DHT22;9322;50.932;5.318;2023-06-14T08:44:28;33.40;1.40
18392;DHT22;9322;50.932;5.318;2023-06-14T08:46:55;33.00;1.40
18392;DHT22;9322;50.932;5.318;2023-06-14T08:49:23;32.70;1.40
18392;DHT22;9322;50.932;5.318;2023-06-14T08:51:58;32.30;1.40
18392;DHT22;9322;50.932;5.318;2023-06-14T08:54:28;31.90;1.40
18392;DHT22;9322;50.932;5.318;2023-06-14T08:56:59;33.20;1.40
18392;DHT22;9322;50.932;5.318;2023-06-14T08:59:28;32.80;1.40
18392;DHT22;9322;50.932;5.318;2023-06-14T09:01:54;32.10;1.40
18392;DHT22;9322;50.932;5.318;2023-06-14T09:04:23;32.60;1.40
18392;DHT22;9322;50.932;5.318;2023-06-14T09:06:55;32.50;1.40
18392;DHT22;9322;50.932;5.318;2023-06-14T09:09:22;33.40;1.40
18392;DHT22;9322;50.932;5.318;2023-06-14T09:11:51;33.20;1.40
18392;DHT22;9322;50.932;5.318;2023-06-14T09:14:23;33.10;1.40
18392;DHT22;9322;50.932;5.318;2023-06-14T09:16:53;33.10;1.40
18392;DHT22;9322;50.932;5.318;2023-06-14T09:19:25;32.50;1.40
18392;DHT22;9322;50.932;5.318;2023-06-14T09:21:52;31.90;1.40
18392;DHT22;9322;50.932;5.318;2023-06-14T09:24:18;32.00;1.40
18392;DHT22;9322;50.932;5.318;2023-06-14T09:26:46;32.50;1.40
18392;DHT22;9322;50.932;5.318;2023-06-14T09:29:12;32.60;1.40
18392;DHT22;9322;50.932;5.318;2023-06-14T09:31:38;32.80;1.40
18392;DHT22;9322;50.932;5.318;2023-06-14T09:34:04;32.00;1.40
18392;DHT22;9322;50.932;5.318;2023-06-14T09:36:31;32.10;1.40
18392;DHT22;9322;50.932;5.318;2023-06-14T09:38:59;32.00;1.40
18392;DHT22;9322;50.932;5.318;2023-06-14T09:41:41;31.70;1.40
18392;DHT22;9322;50.932;5.318;2023-06-14T09:44:08;31.70;1.40
18392;DHT22;9322;50.932;5.318;2023-06-14T09:46:35;32.50;1.40
18392;DHT22;9322;50.932;5.318;2023-06-14T09:49:03;32.10;1.40
18392;DHT22;9322;50.932;5.318;2023-06-14T09:51:29;31.90;1.40
18392;DHT22;9322;50.932;5.318;2023-06-14T09:54:03;31.90;1.40
18392;DHT22;9322;50.932;5.318;2023-06-14T09:56:38;32.50;1.40
18392;DHT22;9322;50.932;5.318;2023-06-14T09:59:06;32.80;1.40
18392;DHT22;9322;50.932;5.318;2023-06-14T10:01:38;33.40;1.40
18392;DHT22;9322;50.932;5.318;2023-06-14T10:04:07;33.10;1.40
18392;DHT22;9322;50.932;5.318;2023-06-14T10:06:36;33.00;1.40
18392;DHT22;9322;50.932;5.318;2023-06-14T10:09:04;33.80;1.40
18392;DHT22;9322;50.932;5.318;2023-06-14T10:11:34;34.30;1.40
18392;DHT22;9322;50.932;5.318;2023-06-14T10:14:02;34.80;1.40
18392;DHT22;9322;50.932;5.318;2023-06-14T10:19:33;35.50;1.40
18392;DHT22;9322;50.932;5.318;2023-06-14T10:22:10;35.50;1.40
18392;DHT22;9322;50.932;5.318;2023-06-14T10:24:41;35.00;1.40
18392;DHT22;9322;50.932;5.318;2023-06-14T10:27:08;33.70;1.40
18392;DHT22;9322;50.932;5.318;2023-06-14T10:32:22;33.30;1.40
18392;DHT22;9322;50.932;5.318;2023-06-14T10:34:56;32.50;1.40
18392;DHT22;9322;50.932;5.318;2023-06-14T10:37:22;33.10;1.40
18392;DHT22;9322;50.932;5.318;2023-06-14T10:39:47;34.50;1.40
18392;DHT22;9322;50.932;5.318;2023-06-14T10:42:14;34.40;1.40
18392;DHT22;9322;50.932;5.318;2023-06-14T10:44:41;34.40;1.40
18392;DHT22;9322;50.932;5.318;2023-06-14T10:47:27;34.00;1.40
18392;DHT22;9322;50.932;5.318;2023-06-14T10:49:54;34.50;1.40
18392;DHT22;9322;50.932;5.318;2023-06-14T10:52:25;34.80;1.40
18392;DHT22;9322;50.932;5.318;2023-06-14T10:57:21;35.50;1.40
18392;DHT22;9322;50.932;5.318;2023-06-14T10:59:47;35.20;1.40
18392;DHT22;9322;50.932;5.318;2023-06-14T11:05:14;36.00;1.40
18392;DHT22;9322;50.932;5.318;2023-06-14T11:07:55;35.20;1.40
18392;DHT22;9322;50.932;5.318;2023-06-14T11:10:39;34.70;1.40
18392;DHT22;9322;50.932;5.318;2023-06-14T11:13:08;33.70;1.40
18392;DHT22;9322;50.932;5.318;2023-06-14T11:15:36;34.20;1.40
18392;DHT22;9322;50.932;5.318;2023-06-14T11:18:03;34.10;1.40
18392;DHT22;9322;50.932;5.318;2023-06-14T11:20:31;34.00;1.40
18392;DHT22;9322;50.932;5.318;2023-06-14T11:22:58;34.30;1.40
18392;DHT22;9322;50.932;5.318;2023-06-14T11:25:24;33.50;1.40
18392;DHT22;9322;50.932;5.318;2023-06-14T11:27:50;34.30;1.40
18392;DHT22;9322;50.932;5.318;2023-06-14T11:30:17;35.20;1.40
18392;DHT22;9322;50.932;5.318;2023-06-14T11:32:45;35.60;1.40
18392;DHT22;9322;50.932;5.318;2023-06-14T11:35:11;36.70;1.40
18392;DHT22;9322;50.932;5.318;2023-06-14T11:37:39;36.50;1.40
18392;DHT22;9322;50.932;5.318;2023-06-14T11:40:07;33.60;1.40
18392;DHT22;9322;50.932;5.318;2023-06-14T11:42:36;32.90;1.40
18392;DHT22;9322;50.932;5.318;2023-06-14T11:45:02;33.20;1.40
18392;DHT22;9322;50.932;5.318;2023-06-14T11:47:35;33.80;1.40
18392;DHT22;9322;50.932;5.318;2023-06-14T11:50:05;33.00;1.40
18392;DHT22;9322;50.932;5.318;2023-06-14T11:52:32;32.50;1.40
18392;DHT22;9322;50.932;5.318;2023-06-14T11:54:58;33.20;1.40
18392;DHT22;9322;50.932;5.318;2023-06-14T11:57:25;33.40;1.40
18392;DHT22;9322;50.932;5.318;2023-06-14T11:59:51;33.30;1.40
18392;DHT22;9322;50.932;5.318;2023-06-14T12:02:18;33.10;1.40
18392;DHT22;9322;50.932;5.318;2023-06-14T12:04:46;31.60;1.40
18392;DHT22;9322;50.932;5.318;2023-06-14T12:07:14;30.80;1.40
18392;DHT22;9322;50.932;5.318;2023-06-14T12:12:25;30.10;1.40
18392;DHT22;9322;50.932;5.318;2023-06-14T12:14:51;30.10;1.40
18392;DHT22;9322;50.932;5.318;2023-06-14T12:17:17;30.20;1.40
18392;DHT22;9322;50.932;5.318;2023-06-14T12:19:45;29.10;1.40
18392;DHT22;9322;50.932;5.318;2023-06-14T12:22:12;28.90;1.40
18392;DHT22;9322;50.932;5.318;2023-06-14T12:24:38;29.40;1.40
18392;DHT22;9322;50.932;5.318;2023-06-14T12:27:05;29.10;1.40
18392;DHT22;9322;50.932;5.318;2023-06-14T12:29:31;28.90;1.40
18392;DHT22;9322;50.932;5.318;2023-06-14T12:31:57;28.80;1.40
18392;DHT22;9322;50.932;5.318;2023-06-14T12:34:27;29.20;1.40
18392;DHT22;9322;50.932;5.318;2023-06-14T12:36:55;29.30;1.40
18392;DHT22;9322;50.932;5.318;2023-06-14T12:39:21;29.10;1.40
18392;DHT22;9322;50.932;5.318;2023-06-14T12:41:47;29.00;1.40
18392;DHT22;9322;50.932;5.318;2023-06-14T12:44:14;29.20;1.40
18392;DHT22;9322;50.932;5.318;2023-06-14T12:46:41;29.30;1.40
18392;DHT22;9322;50.932;5.318;2023-06-14T12:49:09;28.80;1.40
18392;DHT22;9322;50.932;5.318;2023-06-14T12:51:34;28.50;1.40
18392;DHT22;9322;50.932;5.318;2023-06-14T12:54:00;28.80;1.40
18392;DHT22;9322;50.932;5.318;2023-06-14T12:56:26;28.40;1.40
18392;DHT22;9322;50.932;5.318;2023-06-14T12:58:52;28.30;1.40
18392;DHT22;9322;50.932;5.318;2023-06-14T13:01:18;27.90;1.40
18392;DHT22;9322;50.932;5.318;2023-06-14T13:03:44;27.80;1.40
18392;DHT22;9322;50.932;5.318;2023-06-14T13:06:10;28.10;1.40
18392;DHT22;9322;50.932;5.318;2023-06-14T13:08:35;28.40;1.40
18392;DHT22;9322;50.932;5.318;2023-06-14T13:11:01;28.80;1.40
18392;DHT22;9322;50.932;5.318;2023-06-14T13:13:26;28.50;1.40
18392;DHT22;9322;50.932;5.318;2023-06-14T13:15:52;28.00;1.40
18392;DHT22;9322;50.932;5.318;2023-06-14T13:18:18;27.60;1.40
18392;DHT22;9322;50.932;5.318;2023-06-14T13:20:45;27.60;1.40
18392;DHT22;9322;50.932;5.318;2023-06-14T13:23:10;28.10;1.40
18392;DHT22;9322;50.932;5.318;2023-06-14T13:25:37;28.30;1.40
18392;DHT22;9322;50.932;5.318;2023-06-14T13:28:04;28.40;1.40
18392;DHT22;9322;50.932;5.318;2023-06-14T13:30:30;28.40;1.40
18392;DHT22;9322;50.932;5.318;2023-06-14T13:32:56;28.50;1.40
18392;DHT22;9322;50.932;5.318;2023-06-14T13:35:23;27.90;1.40
18392;DHT22;9322;50.932;5.318;2023-06-14T13:37:49;27.60;1.40
18392;DHT22;9322;50.932;5.318;2023-06-14T13:40:15;28.00;1.40
18392;DHT22;9322;50.932;5.318;2023-06-14T13:42:41;27.60;1.40
18392;DHT22;9322;50.932;5.318;2023-06-14T13:45:07;27.50;1.40
18392;DHT22;9322;50.932;5.318;2023-06-14T13:47:33;27.10;1.40
18392;DHT22;9322;50.932;5.318;2023-06-14T13:49:59;27.00;1.40
18392;DHT22;9322;50.932;5.318;2023-06-14T13:52:25;27.00;1.40
18392;DHT22;9322;50.932;5.318;2023-06-14T13:54:50;26.90;1.40
18392;DHT22;9322;50.932;5.318;2023-06-14T13:57:17;27.00;1.40
18392;DHT22;9322;50.932;5.318;2023-06-14T13:59:43;27.50;1.40
18392;DHT22;9322;50.932;5.318;2023-06-14T14:02:12;27.60;1.40
18392;DHT22;9322;50.932;5.318;2023-06-14T14:04:39;27.50;1.40
18392;DHT22;9322;50.932;5.318;2023-06-14T14:07:05;27.40;1.40
18392;DHT22;9322;50.932;5.318;2023-06-14T14:09:32;27.40;1.40
18392;DHT22;9322;50.932;5.318;2023-06-14T14:11:58;27.40;1.40
18392;DHT22;9322;50.932;5.318;2023-06-14T14:14:24;27.20;1.40
18392;DHT22;9322;50.932;5.318;2023-06-14T14:16:50;27.10;1.40
18392;DHT22;9322;50.932;5.318;2023-06-14T14:19:17;27.00;1.40
18392;DHT22;9322;50.932;5.318;2023-06-14T14:21:44;26.80;1.40
18392;DHT22;9322;50.932;5.318;2023-06-14T14:24:10;26.50;1.40
18392;DHT22;9322;50.932;5.318;2023-06-14T14:26:35;26.50;1.40
18392;DHT22;9322;50.932;5.318;2023-06-14T14:29:01;26.90;1.40
18392;DHT22;9322;50.932;5.318;2023-06-14T14:31:28;27.00;1.40
18392;DHT22;9322;50.932;5.318;2023-06-14T14:33:53;26.80;1.40
18392;DHT22;9322;50.932;5.318;2023-06-14T14:36:19;26.70;1.40
18392;DHT22;9322;50.932;5.318;2023-06-14T14:38:45;27.00;1.40
18392;DHT22;9322;50.932;5.318;2023-06-14T14:41:12;27.00;1.40
18392;DHT22;9322;50.932;5.318;2023-06-14T14:43:38;26.80;1.40
18392;DHT22;9322;50.932;5.318;2023-06-14T14:46:04;26.60;1.40
18392;DHT22;9322;50.932;5.318;2023-06-14T14:48:30;26.50;1.40
18392;DHT22;9322;50.932;5.318;2023-06-14T14:50:55;26.40;1.40
18392;DHT22;9322;50.932;5.318;2023-06-14T14:53:21;26.30;1.40
18392;DHT22;9322;50.932;5.318;2023-06-14T14:55:46;26.30;1.40
18392;DHT22;9322;50.932;5.318;2023-06-14T14:58:13;26.50;1.40
18392;DHT22;9322;50.932;5.318;2023-06-14T15:00:38;26.40;1.40
18392;DHT22;9322;50.932;5.318;2023-06-14T15:03:04;26.30;1.40
18392;DHT22;9322;50.932;5.318;2023-06-14T15:05:30;26.40;1.40
18392;DHT22;9322;50.932;5.318;2023-06-14T15:07:56;26.50;1.40
18392;DHT22;9322;50.932;5.318;2023-06-14T15:10:21;26.40;1.40
18392;DHT22;9322;50.932;5.318;2023-06-14T15:12:47;26.20;1.40
18392;DHT22;9322;50.932;5.318;2023-06-14T15:15:13;26.10;1.40
18392;DHT22;9322;50.932;5.318;2023-06-14T15:17:38;26.20;1.40
18392;DHT22;9322;50.932;5.318;2023-06-14T15:20:05;26.30;1.40
18392;DHT22;9322;50.932;5.318;2023-06-14T15:22:31;26.20;1.40
18392;DHT22;9322;50.932;5.318;2023-06-14T15:24:57;26.40;1.40
18392;DHT22;9322;50.932;5.318;2023-06-14T15:27:22;26.60;1.40
18392;DHT22;9322;50.932;5.318;2023-06-14T15:29:48;26.50;1.40
18392;DHT22;9322;50.932;5.318;2023-06-14T15:32:13;26.30;1.40
18392;DHT22;9322;50.932;5.318;2023-06-14T15:34:39;26.40;1.40
18392;DHT22;9322;50.932;5.318;2023-06-14T15:37:06;26.40;1.40
18392;DHT22;9322;50.932;5.318;2023-06-14T15:39:32;26.10;1.40
18392;DHT22;9322;50.932;5.318;2023-06-14T15:41:58;26.00;1.40
18392;DHT22;9322;50.932;5.318;2023-06-14T15:44:24;26.10;1.40
18392;DHT22;9322;50.932;5.318;2023-06-14T15:46:50;26.10;1.40
18392;DHT22;9322;50.932;5.318;2023-06-14T15:49:15;26.30;1.40
18392;DHT22;9322;50.932;5.318;2023-06-14T15:51:41;26.20;1.40
18392;DHT22;9322;50.932;5.318;2023-06-14T15:54:06;26.40;1.40
18392;DHT22;9322;50.932;5.318;2023-06-14T15:56:33;26.40;1.40
18392;DHT22;9322;50.932;5.318;2023-06-14T15:58:59;26.30;1.40
18392;DHT22;9322;50.932;5.318;2023-06-14T16:01:26;26.10;1.40
18392;DHT22;9322;50.932;5.318;2023-06-14T16:03:52;26.20;1.40
18392;DHT22;9322;50.932;5.318;2023-06-14T16:06:17;26.20;1.40
18392;DHT22;9322;50.932;5.318;2023-06-14T16:08:44;26.10;1.40
18392;DHT22;9322;50.932;5.318;2023-06-14T16:11:10;26.10;1.40
18392;DHT22;9322;50.932;5.318;2023-06-14T16:13:36;26.00;1.40
18392;DHT22;9322;50.932;5.318;2023-06-14T16:16:01;26.00;1.40